TimePST,TemperatureF,Dew PointF,Humidity,Sea Level PressureIn,VisibilityMPH,Wind Direction,Wind SpeedMPH,Gust SpeedMPH,PrecipitationIn,Events,Conditions,WindDirDegrees,DateUTC
12:48 AM,60.8,57.2,88,30.14,8.0,ENE,3.5,-,N/A,,Overcast,70,2012-12-01 08:48:00
12:55 AM,62.1,57.9,86,30.16,8.0,ENE,3.5,-,N/A,,Overcast,70,2012-12-01 08:55:00
1:55 AM,62.1,57.9,86,30.16,8.0,East,4.6,-,N/A,,Overcast,80,2012-12-01 09:55:00
2:08 AM,62.6,57.2,82,30.14,9.0,ENE,3.5,-,N/A,,Overcast,70,2012-12-01 10:08:00
2:15 AM,62.6,57.2,82,30.13,7.0,East,3.5,-,N/A,,Overcast,90,2012-12-01 10:15:00
2:23 AM,60.8,57.2,88,30.13,5.0,East,4.6,-,N/A,,Overcast,80,2012-12-01 10:23:00
2:55 AM,61.0,57.9,90,30.16,2.0,East,3.5,-,0.01,Rain,Light Rain,80,2012-12-01 10:55:00
3:05 AM,60.8,57.2,88,30.13,1.8,East,3.5,-,0.01,Rain,Light Rain,90,2012-12-01 11:05:00
3:11 AM,60.8,57.2,88,30.14,2.0,Calm,Calm,-,0.01,Rain,Light Rain,0,2012-12-01 11:11:00
3:43 AM,60.8,57.2,88,30.13,2.0,NNE,4.6,-,0.03,Rain,Light Rain,30,2012-12-01 11:43:00
3:55 AM,61.0,57.9,90,30.16,2.5,NE,4.6,-,0.04,Rain,Light Rain,40,2012-12-01 11:55:00
4:37 AM,60.8,57.2,88,30.12,1.8,East,4.6,-,0.03,Rain,Light Rain,80,2012-12-01 12:37:00
4:44 AM,60.8,59.0,94,30.12,2.5,East,3.5,-,0.03,Rain,Light Rain,80,2012-12-01 12:44:00
4:52 AM,60.8,57.2,88,30.12,4.0,East,3.5,-,0.03,,Overcast,80,2012-12-01 12:52:00
5:31 AM,60.8,59.0,94,30.14,9.0,Calm,Calm,-,N/A,,Overcast,0,2012-12-01 13:31:00
5:55 AM,61.0,57.9,90,30.17,9.0,Calm,Calm,-,N/A,,Overcast,0,2012-12-01 13:55:00
6:45 AM,60.8,57.2,88,30.14,10.0,ENE,4.6,-,N/A,,Overcast,70,2012-12-01 14:45:00
6:55 AM,61.0,57.9,90,30.17,9.0,East,4.6,-,N/A,,Overcast,80,2012-12-01 14:55:00
7:29 AM,60.8,57.2,88,30.15,2.5,NE,6.9,-,0.00,Rain,Light Rain,50,2012-12-01 15:29:00
7:55 AM,61.0,57.9,90,30.18,2.5,ENE,6.9,-,0.00,,Overcast,60,2012-12-01 15:55:00
8:55 AM,62.1,59.0,90,30.20,2.5,East,4.6,-,0.00,,Overcast,90,2012-12-01 16:55:00
9:06 AM,62.6,59.0,88,30.17,1.5,East,4.6,-,0.00,Rain,Light Rain,80,2012-12-01 17:06:00
9:49 AM,62.6,60.8,94,30.17,4.0,East,3.5,-,0.02,,Overcast,90,2012-12-01 17:49:00
9:55 AM,63.0,60.1,90,30.19,6.0,ENE,3.5,-,0.02,,Overcast,70,2012-12-01 17:55:00
10:55 AM,66.0,60.1,81,30.19,10.0,Calm,Calm,-,N/A,,Mostly Cloudy,0,2012-12-01 18:55:00
11:19 AM,66.2,60.8,83,30.15,10.0,WSW,4.6,-,N/A,,Mostly Cloudy,240,2012-12-01 19:19:00
11:21 AM,66.2,59.0,78,30.15,10.0,WSW,3.5,-,N/A,,Mostly Cloudy,240,2012-12-01 19:21:00
11:35 AM,66.2,60.8,83,30.14,10.0,SW,5.8,-,N/A,,Overcast,220,2012-12-01 19:35:00
11:55 AM,66.9,60.1,79,30.16,10.0,SSW,5.8,-,N/A,,Overcast,200,2012-12-01 19:55:00
12:31 PM,66.2,59.0,78,30.12,10.0,SSW,5.8,-,N/A,,Overcast,200,2012-12-01 20:31:00
12:55 PM,66.0,60.1,81,30.14,5.0,SSW,8.1,-,0.00,Rain,Light Rain,210,2012-12-01 20:55:00
2:55 PM,66.0,60.1,81,30.12,10.0,SSW,8.1,-,N/A,,Overcast,200,2012-12-01 22:55:00
2:58 PM,66.2,60.8,83,30.09,10.0,SSW,9.2,-,N/A,,Overcast,200,2012-12-01 22:58:00
3:55 PM,64.9,60.1,84,30.11,10.0,SSW,9.2,-,N/A,,Overcast,210,2012-12-01 23:55:00
4:55 PM,63.0,60.1,90,30.11,2.0,WSW,5.8,-,0.00,Rain,Light Rain,240,2012-12-02 00:55:00
5:32 PM,62.6,60.8,94,30.07,3.0,Calm,Calm,-,0.03,Rain,Light Rain,0,2012-12-02 01:32:00
5:53 PM,62.6,60.8,94,30.07,3.0,Calm,Calm,-,0.04,,Overcast,0,2012-12-02 01:53:00
5:55 PM,63.0,61.0,93,30.09,3.0,Calm,Calm,-,0.04,,Overcast,0,2012-12-02 01:55:00
6:18 PM,62.6,60.8,94,30.07,2.5,South,4.6,-,N/A,,Overcast,180,2012-12-02 02:18:00
6:28 PM,62.6,60.8,94,30.07,4.0,South,4.6,-,N/A,,Overcast,180,2012-12-02 02:28:00
6:44 PM,62.6,60.8,94,30.07,2.5,SSW,6.9,-,N/A,,Overcast,200,2012-12-02 02:44:00
6:55 PM,63.0,61.0,93,30.09,4.0,South,4.6,-,N/A,,Overcast,190,2012-12-02 02:55:00
7:55 PM,62.1,60.1,93,30.11,4.0,WSW,8.1,-,N/A,,Overcast,240,2012-12-02 03:55:00
8:55 PM,62.1,60.1,93,30.12,10.0,Calm,Calm,-,N/A,,Overcast,0,2012-12-02 04:55:00
9:15 PM,62.6,60.8,94,30.09,10.0,SSW,3.5,-,N/A,,Overcast,210,2012-12-02 05:15:00
9:33 PM,62.6,60.8,94,30.09,6.0,Calm,Calm,-,N/A,,Overcast,0,2012-12-02 05:33:00
9:52 PM,62.6,60.8,94,30.10,9.0,Calm,Calm,-,N/A,,Overcast,0,2012-12-02 05:52:00
9:55 PM,62.1,60.1,93,30.13,10.0,Calm,Calm,-,N/A,,Overcast,0,2012-12-02 05:55:00
10:55 PM,62.1,60.1,93,30.14,6.0,Calm,Calm,-,N/A,,Overcast,0,2012-12-02 06:55:00
11:02 PM,62.6,60.8,94,30.11,8.0,SSW,3.5,-,N/A,,Overcast,210,2012-12-02 07:02:00
11:18 PM,62.6,60.8,94,30.11,9.0,Calm,Calm,-,N/A,,Overcast,0,2012-12-02 07:18:00
11:39 PM,62.6,60.8,94,30.10,4.0,Calm,Calm,-,0.00,,Overcast,0,2012-12-02 07:39:00
11:55 PM,62.1,59.0,90,30.12,5.0,South,3.5,-,0.00,,Overcast,170,2012-12-02 07:55:00